Terminal Aerodrome Forecast
Issued by NWS

Home | Current Version | Previous Version | Text Only | Print | Product List | Glossary On
Versions: 1 2 3 4 5 6 7 8 9 10 11 12 13 14 15 16 17 18 19 20 21 22 23
000
FTUS41 KCAR 120841 AAB
TAFBHB
TAF AMD
KBHB 120841Z 1209/1306 30006KT P6SM SCT070
     FM121800 26008KT P6SM SCT080 OVC150
     FM122200 25005KT P6SM SCT040 OVC100
     FM130200 20004KT P6SM OVC035
     FM130400 17005KT 2SM -SN OVC022
      AMD LTD TO CLD VIS AND WIND=

USA.gov is the U.S. government's official web portal to all federal, state and local government web resources and services.